sensor_id;sensor_type;location;lat;lon;timestamp;P1;durP1;ratioP1;P2;durP2;ratioP2
16870;SDS011;8552;48.120;-1.456;2023-07-31T00:01:15;9.85;;;5.18;;
16870;SDS011;8552;48.120;-1.456;2023-07-31T00:03:41;10.80;;;4.65;;
16870;SDS011;8552;48.120;-1.456;2023-07-31T00:06:06;11.63;;;5.07;;
16870;SDS011;8552;48.120;-1.456;2023-07-31T00:08:32;11.40;;;5.20;;
16870;SDS011;8552;48.120;-1.456;2023-07-31T00:10:58;13.07;;;5.13;;
16870;SDS011;8552;48.120;-1.456;2023-07-31T00:13:23;11.38;;;4.70;;
16870;SDS011;8552;48.120;-1.456;2023-07-31T00:15:49;12.88;;;5.43;;
16870;SDS011;8552;48.120;-1.456;2023-07-31T00:18:15;14.50;;;5.10;;
16870;SDS011;8552;48.120;-1.456;2023-07-31T00:20:40;10.95;;;4.78;;
16870;SDS011;8552;48.120;-1.456;2023-07-31T00:23:06;9.38;;;5.03;;
16870;SDS011;8552;48.120;-1.456;2023-07-31T00:25:32;18.33;;;6.15;;
16870;SDS011;8552;48.120;-1.456;2023-07-31T00:27:57;19.58;;;5.95;;
16870;SDS011;8552;48.120;-1.456;2023-07-31T00:30:23;14.32;;;5.15;;
16870;SDS011;8552;48.120;-1.456;2023-07-31T00:32:50;12.82;;;5.15;;
16870;SDS011;8552;48.120;-1.456;2023-07-31T00:35:16;16.65;;;5.68;;
16870;SDS011;8552;48.120;-1.456;2023-07-31T00:37:41;13.43;;;5.68;;
16870;SDS011;8552;48.120;-1.456;2023-07-31T00:40:07;12.88;;;5.88;;
16870;SDS011;8552;48.120;-1.456;2023-07-31T00:42:33;21.63;;;6.13;;
16870;SDS011;8552;48.120;-1.456;2023-07-31T00:44:59;15.55;;;5.45;;
16870;SDS011;8552;48.120;-1.456;2023-07-31T00:47:25;12.35;;;5.22;;
16870;SDS011;8552;48.120;-1.456;2023-07-31T00:49:51;13.95;;;5.20;;
16870;SDS011;8552;48.120;-1.456;2023-07-31T00:52:17;12.73;;;5.75;;
16870;SDS011;8552;48.120;-1.456;2023-07-31T00:54:44;14.90;;;4.88;;
16870;SDS011;8552;48.120;-1.456;2023-07-31T00:57:10;12.25;;;5.47;;
16870;SDS011;8552;48.120;-1.456;2023-07-31T00:59:36;13.05;;;5.35;;
16870;SDS011;8552;48.120;-1.456;2023-07-31T01:02:01;11.50;;;5.18;;
16870;SDS011;8552;48.120;-1.456;2023-07-31T01:04:28;15.02;;;5.72;;
16870;SDS011;8552;48.120;-1.456;2023-07-31T01:06:56;13.32;;;5.60;;
16870;SDS011;8552;48.120;-1.456;2023-07-31T01:12:20;11.35;;;5.28;;
16870;SDS011;8552;48.120;-1.456;2023-07-31T01:17:26;13.27;;;5.43;;
16870;SDS011;8552;48.120;-1.456;2023-07-31T01:19:52;13.00;;;5.75;;
16870;SDS011;8552;48.120;-1.456;2023-07-31T01:25:22;10.95;;;5.68;;
16870;SDS011;8552;48.120;-1.456;2023-07-31T01:28:09;13.48;;;6.45;;
16870;SDS011;8552;48.120;-1.456;2023-07-31T01:30:41;13.90;;;5.38;;
16870;SDS011;8552;48.120;-1.456;2023-07-31T01:33:09;18.27;;;5.72;;
16870;SDS011;8552;48.120;-1.456;2023-07-31T01:35:36;10.75;;;5.38;;
16870;SDS011;8552;48.120;-1.456;2023-07-31T01:38:02;17.58;;;5.80;;
16870;SDS011;8552;48.120;-1.456;2023-07-31T01:40:29;13.88;;;5.72;;
16870;SDS011;8552;48.120;-1.456;2023-07-31T01:42:55;11.82;;;4.22;;
16870;SDS011;8552;48.120;-1.456;2023-07-31T01:45:21;13.55;;;5.47;;
16870;SDS011;8552;48.120;-1.456;2023-07-31T01:47:46;13.77;;;5.25;;
16870;SDS011;8552;48.120;-1.456;2023-07-31T01:50:12;12.05;;;5.47;;
16870;SDS011;8552;48.120;-1.456;2023-07-31T01:52:38;14.75;;;5.80;;
16870;SDS011;8552;48.120;-1.456;2023-07-31T01:55:04;16.30;;;5.82;;
16870;SDS011;8552;48.120;-1.456;2023-07-31T01:57:29;14.35;;;6.10;;
16870;SDS011;8552;48.120;-1.456;2023-07-31T01:59:55;12.38;;;5.47;;
16870;SDS011;8552;48.120;-1.456;2023-07-31T02:02:21;13.75;;;5.45;;
16870;SDS011;8552;48.120;-1.456;2023-07-31T02:04:48;14.32;;;6.47;;
16870;SDS011;8552;48.120;-1.456;2023-07-31T02:07:14;13.45;;;5.95;;
16870;SDS011;8552;48.120;-1.456;2023-07-31T02:09:39;14.18;;;5.72;;
16870;SDS011;8552;48.120;-1.456;2023-07-31T02:12:05;14.80;;;5.68;;
16870;SDS011;8552;48.120;-1.456;2023-07-31T02:14:33;18.77;;;5.65;;
16870;SDS011;8552;48.120;-1.456;2023-07-31T02:16:59;9.60;;;5.32;;
16870;SDS011;8552;48.120;-1.456;2023-07-31T02:19:25;12.07;;;5.68;;
16870;SDS011;8552;48.120;-1.456;2023-07-31T02:21:50;17.52;;;5.40;;
16870;SDS011;8552;48.120;-1.456;2023-07-31T02:24:16;10.68;;;5.00;;
16870;SDS011;8552;48.120;-1.456;2023-07-31T02:26:42;10.38;;;5.07;;
16870;SDS011;8552;48.120;-1.456;2023-07-31T02:29:08;15.98;;;6.75;;
16870;SDS011;8552;48.120;-1.456;2023-07-31T02:31:34;12.82;;;5.32;;
16870;SDS011;8552;48.120;-1.456;2023-07-31T02:33:59;10.75;;;4.45;;
16870;SDS011;8552;48.120;-1.456;2023-07-31T02:36:25;12.70;;;5.10;;
16870;SDS011;8552;48.120;-1.456;2023-07-31T02:38:51;13.32;;;5.63;;
16870;SDS011;8552;48.120;-1.456;2023-07-31T02:41:16;10.82;;;4.90;;
16870;SDS011;8552;48.120;-1.456;2023-07-31T02:43:42;9.38;;;4.70;;
16870;SDS011;8552;48.120;-1.456;2023-07-31T02:46:08;16.40;;;6.55;;
16870;SDS011;8552;48.120;-1.456;2023-07-31T02:48:34;14.18;;;6.75;;
16870;SDS011;8552;48.120;-1.456;2023-07-31T02:51:00;14.02;;;5.55;;
16870;SDS011;8552;48.120;-1.456;2023-07-31T02:53:26;18.25;;;6.15;;
16870;SDS011;8552;48.120;-1.456;2023-07-31T02:55:51;14.70;;;5.43;;
16870;SDS011;8552;48.120;-1.456;2023-07-31T02:58:17;15.15;;;5.40;;
16870;SDS011;8552;48.120;-1.456;2023-07-31T03:00:43;16.00;;;5.75;;
16870;SDS011;8552;48.120;-1.456;2023-07-31T03:03:09;16.83;;;6.00;;
16870;SDS011;8552;48.120;-1.456;2023-07-31T03:05:35;10.05;;;4.80;;
16870;SDS011;8552;48.120;-1.456;2023-07-31T03:08:01;9.90;;;5.40;;
16870;SDS011;8552;48.120;-1.456;2023-07-31T03:10:26;12.30;;;5.63;;
16870;SDS011;8552;48.120;-1.456;2023-07-31T03:12:52;11.50;;;5.03;;
16870;SDS011;8552;48.120;-1.456;2023-07-31T03:15:18;11.15;;;5.00;;
16870;SDS011;8552;48.120;-1.456;2023-07-31T03:17:43;12.50;;;5.38;;
16870;SDS011;8552;48.120;-1.456;2023-07-31T03:20:09;10.40;;;4.38;;
16870;SDS011;8552;48.120;-1.456;2023-07-31T03:22:35;13.15;;;5.10;;
16870;SDS011;8552;48.120;-1.456;2023-07-31T03:25:02;9.25;;;4.82;;
16870;SDS011;8552;48.120;-1.456;2023-07-31T03:27:28;11.20;;;5.05;;
16870;SDS011;8552;48.120;-1.456;2023-07-31T03:29:53;9.77;;;4.13;;
16870;SDS011;8552;48.120;-1.456;2023-07-31T03:32:19;13.45;;;5.20;;
16870;SDS011;8552;48.120;-1.456;2023-07-31T03:34:45;15.18;;;5.40;;
16870;SDS011;8552;48.120;-1.456;2023-07-31T03:37:10;16.40;;;5.30;;
16870;SDS011;8552;48.120;-1.456;2023-07-31T03:39:36;13.25;;;5.30;;
16870;SDS011;8552;48.120;-1.456;2023-07-31T03:42:02;13.20;;;4.80;;
16870;SDS011;8552;48.120;-1.456;2023-07-31T03:44:27;14.63;;;4.63;;
16870;SDS011;8552;48.120;-1.456;2023-07-31T03:46:53;12.73;;;4.80;;
16870;SDS011;8552;48.120;-1.456;2023-07-31T03:49:19;13.93;;;5.50;;
16870;SDS011;8552;48.120;-1.456;2023-07-31T03:51:45;12.48;;;5.18;;
16870;SDS011;8552;48.120;-1.456;2023-07-31T03:54:10;8.75;;;4.70;;
16870;SDS011;8552;48.120;-1.456;2023-07-31T03:56:36;11.73;;;5.72;;
16870;SDS011;8552;48.120;-1.456;2023-07-31T03:59:03;11.07;;;4.47;;
16870;SDS011;8552;48.120;-1.456;2023-07-31T04:01:29;16.23;;;4.97;;
16870;SDS011;8552;48.120;-1.456;2023-07-31T04:03:55;14.18;;;4.78;;
16870;SDS011;8552;48.120;-1.456;2023-07-31T04:06:20;11.50;;;4.75;;
16870;SDS011;8552;48.120;-1.456;2023-07-31T04:08:46;10.82;;;4.45;;
16870;SDS011;8552;48.120;-1.456;2023-07-31T04:11:12;14.90;;;5.50;;
16870;SDS011;8552;48.120;-1.456;2023-07-31T04:13:38;12.30;;;5.13;;
16870;SDS011;8552;48.120;-1.456;2023-07-31T04:16:04;16.58;;;5.00;;
16870;SDS011;8552;48.120;-1.456;2023-07-31T04:18:30;10.20;;;4.35;;
16870;SDS011;8552;48.120;-1.456;2023-07-31T04:20:56;11.60;;;4.90;;
16870;SDS011;8552;48.120;-1.456;2023-07-31T04:23:23;10.60;;;5.00;;
16870;SDS011;8552;48.120;-1.456;2023-07-31T04:25:49;10.18;;;5.43;;
16870;SDS011;8552;48.120;-1.456;2023-07-31T04:28:15;9.65;;;4.55;;
16870;SDS011;8552;48.120;-1.456;2023-07-31T04:30:41;14.05;;;4.35;;
16870;SDS011;8552;48.120;-1.456;2023-07-31T04:33:06;10.40;;;4.47;;
16870;SDS011;8552;48.120;-1.456;2023-07-31T04:35:32;11.57;;;5.30;;
16870;SDS011;8552;48.120;-1.456;2023-07-31T04:37:58;9.80;;;5.22;;
16870;SDS011;8552;48.120;-1.456;2023-07-31T04:40:23;11.07;;;4.82;;
16870;SDS011;8552;48.120;-1.456;2023-07-31T04:42:49;11.20;;;4.18;;
16870;SDS011;8552;48.120;-1.456;2023-07-31T04:45:15;14.43;;;4.95;;
16870;SDS011;8552;48.120;-1.456;2023-07-31T04:47:40;9.32;;;4.20;;
16870;SDS011;8552;48.120;-1.456;2023-07-31T04:50:06;16.95;;;5.10;;
16870;SDS011;8552;48.120;-1.456;2023-07-31T04:52:32;10.55;;;4.50;;
16870;SDS011;8552;48.120;-1.456;2023-07-31T04:54:58;8.77;;;4.63;;
16870;SDS011;8552;48.120;-1.456;2023-07-31T04:57:23;9.45;;;4.97;;
16870;SDS011;8552;48.120;-1.456;2023-07-31T04:59:49;11.95;;;5.25;;
16870;SDS011;8552;48.120;-1.456;2023-07-31T05:02:15;9.13;;;5.13;;
16870;SDS011;8552;48.120;-1.456;2023-07-31T05:04:40;11.77;;;5.05;;
16870;SDS011;8552;48.120;-1.456;2023-07-31T05:07:06;11.98;;;4.32;;
16870;SDS011;8552;48.120;-1.456;2023-07-31T05:09:32;8.43;;;4.53;;
16870;SDS011;8552;48.120;-1.456;2023-07-31T05:11:58;11.52;;;4.97;;
16870;SDS011;8552;48.120;-1.456;2023-07-31T05:14:25;11.07;;;4.35;;
16870;SDS011;8552;48.120;-1.456;2023-07-31T05:16:51;9.70;;;4.95;;
16870;SDS011;8552;48.120;-1.456;2023-07-31T05:19:17;9.25;;;4.38;;
16870;SDS011;8552;48.120;-1.456;2023-07-31T05:21:42;12.75;;;5.60;;
16870;SDS011;8552;48.120;-1.456;2023-07-31T05:24:09;9.45;;;4.65;;
16870;SDS011;8552;48.120;-1.456;2023-07-31T05:26:35;10.10;;;4.85;;
16870;SDS011;8552;48.120;-1.456;2023-07-31T05:29:01;10.23;;;5.10;;
16870;SDS011;8552;48.120;-1.456;2023-07-31T05:31:27;13.70;;;4.82;;
16870;SDS011;8552;48.120;-1.456;2023-07-31T05:33:53;11.90;;;4.65;;
16870;SDS011;8552;48.120;-1.456;2023-07-31T05:36:19;10.50;;;4.47;;
16870;SDS011;8552;48.120;-1.456;2023-07-31T05:38:44;16.15;;;6.00;;
16870;SDS011;8552;48.120;-1.456;2023-07-31T05:41:13;10.77;;;4.40;;
16870;SDS011;8552;48.120;-1.456;2023-07-31T05:43:39;12.52;;;4.30;;
16870;SDS011;8552;48.120;-1.456;2023-07-31T05:46:04;15.48;;;4.90;;
16870;SDS011;8552;48.120;-1.456;2023-07-31T05:48:31;10.30;;;3.92;;
16870;SDS011;8552;48.120;-1.456;2023-07-31T05:50:59;16.00;;;4.97;;
16870;SDS011;8552;48.120;-1.456;2023-07-31T05:53:25;8.10;;;4.93;;
16870;SDS011;8552;48.120;-1.456;2023-07-31T05:55:50;13.30;;;5.68;;
16870;SDS011;8552;48.120;-1.456;2023-07-31T05:58:16;6.95;;;3.55;;
16870;SDS011;8552;48.120;-1.456;2023-07-31T06:00:41;8.63;;;4.70;;
16870;SDS011;8552;48.120;-1.456;2023-07-31T06:03:07;17.77;;;5.20;;
16870;SDS011;8552;48.120;-1.456;2023-07-31T06:05:33;8.73;;;4.97;;
16870;SDS011;8552;48.120;-1.456;2023-07-31T06:07:59;13.88;;;5.03;;
16870;SDS011;8552;48.120;-1.456;2023-07-31T06:10:24;15.02;;;5.47;;
16870;SDS011;8552;48.120;-1.456;2023-07-31T06:12:50;10.55;;;4.32;;
16870;SDS011;8552;48.120;-1.456;2023-07-31T06:15:16;9.73;;;3.97;;
16870;SDS011;8552;48.120;-1.456;2023-07-31T06:17:44;12.50;;;4.22;;
16870;SDS011;8552;48.120;-1.456;2023-07-31T06:20:10;11.23;;;5.05;;
16870;SDS011;8552;48.120;-1.456;2023-07-31T06:22:35;14.25;;;4.90;;
16870;SDS011;8552;48.120;-1.456;2023-07-31T06:25:01;10.98;;;4.82;;
16870;SDS011;8552;48.120;-1.456;2023-07-31T06:27:27;12.30;;;4.20;;
16870;SDS011;8552;48.120;-1.456;2023-07-31T06:29:53;10.02;;;4.43;;
16870;SDS011;8552;48.120;-1.456;2023-07-31T06:32:18;9.85;;;4.40;;
16870;SDS011;8552;48.120;-1.456;2023-07-31T06:34:44;9.75;;;4.03;;
16870;SDS011;8552;48.120;-1.456;2023-07-31T06:37:10;8.27;;;3.80;;
16870;SDS011;8552;48.120;-1.456;2023-07-31T06:39:35;10.73;;;4.45;;
16870;SDS011;8552;48.120;-1.456;2023-07-31T06:42:03;10.10;;;3.83;;
16870;SDS011;8552;48.120;-1.456;2023-07-31T06:44:32;9.60;;;4.10;;
16870;SDS011;8552;48.120;-1.456;2023-07-31T06:46:57;10.85;;;4.22;;
16870;SDS011;8552;48.120;-1.456;2023-07-31T06:49:23;6.78;;;3.22;;
16870;SDS011;8552;48.120;-1.456;2023-07-31T06:51:49;8.60;;;3.65;;
16870;SDS011;8552;48.120;-1.456;2023-07-31T06:54:14;7.72;;;3.88;;
16870;SDS011;8552;48.120;-1.456;2023-07-31T06:56:40;6.65;;;3.50;;
16870;SDS011;8552;48.120;-1.456;2023-07-31T06:59:06;9.77;;;3.50;;
16870;SDS011;8552;48.120;-1.456;2023-07-31T07:01:31;14.82;;;3.40;;
16870;SDS011;8552;48.120;-1.456;2023-07-31T07:03:57;7.93;;;4.13;;
16870;SDS011;8552;48.120;-1.456;2023-07-31T07:06:23;7.38;;;3.20;;
16870;SDS011;8552;48.120;-1.456;2023-07-31T07:08:49;6.75;;;3.60;;
16870;SDS011;8552;48.120;-1.456;2023-07-31T07:11:14;9.48;;;3.28;;
16870;SDS011;8552;48.120;-1.456;2023-07-31T07:13:40;10.52;;;3.65;;
16870;SDS011;8552;48.120;-1.456;2023-07-31T07:16:06;10.00;;;3.33;;
16870;SDS011;8552;48.120;-1.456;2023-07-31T07:18:31;9.00;;;3.22;;
16870;SDS011;8552;48.120;-1.456;2023-07-31T07:20:57;5.75;;;2.92;;
16870;SDS011;8552;48.120;-1.456;2023-07-31T07:23:23;8.35;;;3.30;;
16870;SDS011;8552;48.120;-1.456;2023-07-31T07:25:49;6.82;;;3.42;;
16870;SDS011;8552;48.120;-1.456;2023-07-31T07:28:16;12.70;;;3.88;;
16870;SDS011;8552;48.120;-1.456;2023-07-31T07:30:42;8.95;;;3.08;;
16870;SDS011;8552;48.120;-1.456;2023-07-31T07:33:07;7.55;;;2.83;;
16870;SDS011;8552;48.120;-1.456;2023-07-31T07:35:33;9.23;;;3.10;;
16870;SDS011;8552;48.120;-1.456;2023-07-31T07:37:59;6.05;;;2.97;;
16870;SDS011;8552;48.120;-1.456;2023-07-31T07:40:26;6.35;;;3.13;;
16870;SDS011;8552;48.120;-1.456;2023-07-31T07:42:52;7.53;;;3.33;;
16870;SDS011;8552;48.120;-1.456;2023-07-31T07:45:17;6.00;;;2.55;;
16870;SDS011;8552;48.120;-1.456;2023-07-31T07:47:43;8.13;;;3.42;;
16870;SDS011;8552;48.120;-1.456;2023-07-31T07:50:09;6.50;;;2.92;;
16870;SDS011;8552;48.120;-1.456;2023-07-31T07:52:34;7.00;;;2.97;;
16870;SDS011;8552;48.120;-1.456;2023-07-31T07:55:00;9.73;;;3.40;;
16870;SDS011;8552;48.120;-1.456;2023-07-31T07:57:26;16.83;;;5.35;;
16870;SDS011;8552;48.120;-1.456;2023-07-31T07:59:52;9.80;;;3.22;;
16870;SDS011;8552;48.120;-1.456;2023-07-31T08:02:18;4.85;;;2.70;;
16870;SDS011;8552;48.120;-1.456;2023-07-31T08:04:43;6.80;;;2.75;;
16870;SDS011;8552;48.120;-1.456;2023-07-31T08:07:12;6.18;;;2.90;;
16870;SDS011;8552;48.120;-1.456;2023-07-31T08:09:38;5.60;;;2.63;;
16870;SDS011;8552;48.120;-1.456;2023-07-31T08:12:04;7.57;;;2.92;;
16870;SDS011;8552;48.120;-1.456;2023-07-31T08:14:30;8.40;;;3.33;;
16870;SDS011;8552;48.120;-1.456;2023-07-31T08:16:56;6.13;;;2.72;;
16870;SDS011;8552;48.120;-1.456;2023-07-31T08:19:22;7.05;;;3.33;;
16870;SDS011;8552;48.120;-1.456;2023-07-31T08:21:48;13.05;;;3.20;;
16870;SDS011;8552;48.120;-1.456;2023-07-31T08:24:13;8.43;;;3.03;;
16870;SDS011;8552;48.120;-1.456;2023-07-31T08:26:39;9.77;;;3.17;;
16870;SDS011;8552;48.120;-1.456;2023-07-31T08:29:05;5.65;;;3.10;;
16870;SDS011;8552;48.120;-1.456;2023-07-31T08:31:31;6.65;;;2.58;;
16870;SDS011;8552;48.120;-1.456;2023-07-31T08:33:56;6.47;;;2.53;;
16870;SDS011;8552;48.120;-1.456;2023-07-31T08:36:22;7.00;;;3.03;;
16870;SDS011;8552;48.120;-1.456;2023-07-31T08:38:48;5.38;;;2.78;;
16870;SDS011;8552;48.120;-1.456;2023-07-31T08:41:15;8.32;;;2.95;;
16870;SDS011;8552;48.120;-1.456;2023-07-31T08:43:42;5.63;;;2.97;;
16870;SDS011;8552;48.120;-1.456;2023-07-31T08:46:14;5.00;;;2.75;;
16870;SDS011;8552;48.120;-1.456;2023-07-31T08:48:41;5.25;;;2.05;;
16870;SDS011;8552;48.120;-1.456;2023-07-31T08:51:08;7.35;;;3.25;;
16870;SDS011;8552;48.120;-1.456;2023-07-31T08:53:34;4.65;;;2.28;;
16870;SDS011;8552;48.120;-1.456;2023-07-31T08:56:00;4.70;;;2.50;;
16870;SDS011;8552;48.120;-1.456;2023-07-31T08:58:27;5.72;;;2.22;;
16870;SDS011;8552;48.120;-1.456;2023-07-31T09:00:57;4.38;;;2.28;;
16870;SDS011;8552;48.120;-1.456;2023-07-31T09:03:26;3.47;;;1.90;;
16870;SDS011;8552;48.120;-1.456;2023-07-31T09:05:51;3.40;;;2.10;;
16870;SDS011;8552;48.120;-1.456;2023-07-31T09:08:19;4.15;;;2.25;;
16870;SDS011;8552;48.120;-1.456;2023-07-31T09:10:46;4.43;;;2.17;;
16870;SDS011;8552;48.120;-1.456;2023-07-31T09:13:14;3.83;;;2.15;;
16870;SDS011;8552;48.120;-1.456;2023-07-31T09:15:40;3.85;;;2.03;;
16870;SDS011;8552;48.120;-1.456;2023-07-31T09:18:09;3.00;;;1.67;;
16870;SDS011;8552;48.120;-1.456;2023-07-31T09:20:35;4.32;;;2.55;;
16870;SDS011;8552;48.120;-1.456;2023-07-31T09:23:06;6.43;;;2.20;;
16870;SDS011;8552;48.120;-1.456;2023-07-31T09:25:38;4.40;;;2.08;;
16870;SDS011;8552;48.120;-1.456;2023-07-31T09:28:08;4.93;;;1.98;;
16870;SDS011;8552;48.120;-1.456;2023-07-31T09:30:48;3.47;;;2.17;;
16870;SDS011;8552;48.120;-1.456;2023-07-31T09:33:15;4.22;;;2.58;;
16870;SDS011;8552;48.120;-1.456;2023-07-31T09:35:41;3.80;;;1.67;;
16870;SDS011;8552;48.120;-1.456;2023-07-31T09:38:08;3.80;;;2.63;;
16870;SDS011;8552;48.120;-1.456;2023-07-31T09:40:42;3.90;;;2.30;;
16870;SDS011;8552;48.120;-1.456;2023-07-31T09:43:11;3.33;;;2.25;;
16870;SDS011;8552;48.120;-1.456;2023-07-31T09:45:39;5.13;;;2.50;;
16870;SDS011;8552;48.120;-1.456;2023-07-31T09:48:12;7.25;;;2.65;;
16870;SDS011;8552;48.120;-1.456;2023-07-31T09:50:43;6.05;;;3.10;;
16870;SDS011;8552;48.120;-1.456;2023-07-31T09:53:10;4.38;;;2.67;;
16870;SDS011;8552;48.120;-1.456;2023-07-31T09:55:37;4.47;;;2.63;;
16870;SDS011;8552;48.120;-1.456;2023-07-31T09:58:04;7.25;;;2.90;;
16870;SDS011;8552;48.120;-1.456;2023-07-31T10:00:34;8.00;;;3.40;;
16870;SDS011;8552;48.120;-1.456;2023-07-31T10:03:02;5.47;;;3.55;;
16870;SDS011;8552;48.120;-1.456;2023-07-31T10:06:12;7.88;;;3.50;;
16870;SDS011;8552;48.120;-1.456;2023-07-31T10:08:21;5.82;;;3.53;;
16870;SDS011;8552;48.120;-1.456;2023-07-31T10:10:51;4.57;;;2.97;;
16870;SDS011;8552;48.120;-1.456;2023-07-31T10:13:17;5.05;;;2.83;;
16870;SDS011;8552;48.120;-1.456;2023-07-31T10:15:47;7.93;;;3.20;;
16870;SDS011;8552;48.120;-1.456;2023-07-31T10:18:13;7.95;;;3.30;;
16870;SDS011;8552;48.120;-1.456;2023-07-31T10:20:40;4.55;;;3.10;;
16870;SDS011;8552;48.120;-1.456;2023-07-31T10:23:06;4.95;;;3.20;;
16870;SDS011;8552;48.120;-1.456;2023-07-31T10:25:31;6.03;;;3.15;;
16870;SDS011;8552;48.120;-1.456;2023-07-31T10:27:59;5.20;;;2.88;;
16870;SDS011;8552;48.120;-1.456;2023-07-31T10:30:26;5.50;;;3.40;;
16870;SDS011;8552;48.120;-1.456;2023-07-31T10:32:54;9.02;;;3.58;;
16870;SDS011;8552;48.120;-1.456;2023-07-31T10:35:21;6.78;;;3.22;;
16870;SDS011;8552;48.120;-1.456;2023-07-31T10:37:47;6.88;;;3.47;;
16870;SDS011;8552;48.120;-1.456;2023-07-31T10:40:17;7.80;;;3.83;;
16870;SDS011;8552;48.120;-1.456;2023-07-31T10:42:54;4.93;;;3.20;;
16870;SDS011;8552;48.120;-1.456;2023-07-31T10:45:24;9.73;;;4.15;;
16870;SDS011;8552;48.120;-1.456;2023-07-31T10:48:05;6.25;;;3.55;;
16870;SDS011;8552;48.120;-1.456;2023-07-31T10:50:36;8.65;;;3.65;;
16870;SDS011;8552;48.120;-1.456;2023-07-31T10:53:03;5.15;;;3.08;;
16870;SDS011;8552;48.120;-1.456;2023-07-31T10:58:06;7.38;;;3.55;;
16870;SDS011;8552;48.120;-1.456;2023-07-31T11:00:40;10.43;;;4.43;;
16870;SDS011;8552;48.120;-1.456;2023-07-31T11:03:09;6.43;;;3.67;;
16870;SDS011;8552;48.120;-1.456;2023-07-31T11:05:43;4.38;;;3.45;;
16870;SDS011;8552;48.120;-1.456;2023-07-31T11:08:17;6.53;;;3.65;;
16870;SDS011;8552;48.120;-1.456;2023-07-31T11:10:45;7.00;;;3.60;;
16870;SDS011;8552;48.120;-1.456;2023-07-31T11:13:13;8.82;;;3.90;;
16870;SDS011;8552;48.120;-1.456;2023-07-31T11:15:39;4.82;;;3.72;;
16870;SDS011;8552;48.120;-1.456;2023-07-31T11:18:05;6.32;;;3.10;;
16870;SDS011;8552;48.120;-1.456;2023-07-31T11:20:32;7.53;;;3.38;;
16870;SDS011;8552;48.120;-1.456;2023-07-31T11:23:02;4.85;;;2.70;;
16870;SDS011;8552;48.120;-1.456;2023-07-31T11:25:34;7.60;;;2.95;;
16870;SDS011;8552;48.120;-1.456;2023-07-31T11:28:06;7.43;;;3.10;;
16870;SDS011;8552;48.120;-1.456;2023-07-31T11:30:34;6.72;;;3.03;;
16870;SDS011;8552;48.120;-1.456;2023-07-31T11:33:01;3.90;;;3.00;;
16870;SDS011;8552;48.120;-1.456;2023-07-31T11:35:29;9.18;;;4.50;;
16870;SDS011;8552;48.120;-1.456;2023-07-31T11:37:56;7.75;;;3.63;;
16870;SDS011;8552;48.120;-1.456;2023-07-31T11:40:21;6.20;;;3.65;;
16870;SDS011;8552;48.120;-1.456;2023-07-31T11:42:47;6.45;;;3.20;;
16870;SDS011;8552;48.120;-1.456;2023-07-31T11:45:12;6.80;;;3.60;;
16870;SDS011;8552;48.120;-1.456;2023-07-31T11:47:38;7.55;;;3.90;;
16870;SDS011;8552;48.120;-1.456;2023-07-31T11:50:05;6.80;;;3.78;;
16870;SDS011;8552;48.120;-1.456;2023-07-31T11:52:40;9.95;;;3.53;;
16870;SDS011;8552;48.120;-1.456;2023-07-31T11:55:08;7.05;;;3.60;;
16870;SDS011;8552;48.120;-1.456;2023-07-31T11:57:35;6.65;;;3.92;;
16870;SDS011;8552;48.120;-1.456;2023-07-31T12:00:03;7.50;;;3.38;;
16870;SDS011;8552;48.120;-1.456;2023-07-31T12:02:29;8.57;;;3.75;;
16870;SDS011;8552;48.120;-1.456;2023-07-31T12:04:55;8.07;;;3.72;;
16870;SDS011;8552;48.120;-1.456;2023-07-31T12:07:21;8.60;;;3.95;;
16870;SDS011;8552;48.120;-1.456;2023-07-31T12:09:53;5.97;;;3.35;;
16870;SDS011;8552;48.120;-1.456;2023-07-31T12:12:20;5.68;;;3.53;;
16870;SDS011;8552;48.120;-1.456;2023-07-31T12:14:47;6.95;;;3.92;;
16870;SDS011;8552;48.120;-1.456;2023-07-31T12:17:13;5.05;;;3.83;;
16870;SDS011;8552;48.120;-1.456;2023-07-31T12:19:40;8.32;;;3.42;;
16870;SDS011;8552;48.120;-1.456;2023-07-31T12:22:13;4.35;;;2.88;;
16870;SDS011;8552;48.120;-1.456;2023-07-31T12:24:41;5.63;;;3.35;;
16870;SDS011;8552;48.120;-1.456;2023-07-31T12:27:12;5.07;;;2.65;;
16870;SDS011;8552;48.120;-1.456;2023-07-31T12:29:40;3.78;;;2.20;;
16870;SDS011;8552;48.120;-1.456;2023-07-31T12:32:23;4.38;;;2.88;;
16870;SDS011;8552;48.120;-1.456;2023-07-31T12:34:50;5.30;;;3.15;;
16870;SDS011;8552;48.120;-1.456;2023-07-31T12:37:16;5.00;;;2.83;;
16870;SDS011;8552;48.120;-1.456;2023-07-31T12:39:42;3.97;;;1.83;;
16870;SDS011;8552;48.120;-1.456;2023-07-31T12:42:08;2.50;;;2.08;;
16870;SDS011;8552;48.120;-1.456;2023-07-31T12:44:34;3.22;;;1.70;;
16870;SDS011;8552;48.120;-1.456;2023-07-31T12:46:59;1.83;;;1.45;;
16870;SDS011;8552;48.120;-1.456;2023-07-31T12:49:25;4.15;;;1.92;;
16870;SDS011;8552;48.120;-1.456;2023-07-31T12:51:50;2.22;;;1.73;;
16870;SDS011;8552;48.120;-1.456;2023-07-31T12:54:16;3.00;;;2.05;;
16870;SDS011;8552;48.120;-1.456;2023-07-31T12:56:42;3.63;;;2.00;;
16870;SDS011;8552;48.120;-1.456;2023-07-31T12:59:07;3.80;;;1.80;;
16870;SDS011;8552;48.120;-1.456;2023-07-31T13:01:33;4.63;;;2.67;;
16870;SDS011;8552;48.120;-1.456;2023-07-31T13:03:59;2.80;;;1.90;;
16870;SDS011;8552;48.120;-1.456;2023-07-31T13:06:25;3.97;;;1.98;;
16870;SDS011;8552;48.120;-1.456;2023-07-31T13:08:51;2.67;;;1.63;;
16870;SDS011;8552;48.120;-1.456;2023-07-31T13:11:16;3.15;;;1.70;;
16870;SDS011;8552;48.120;-1.456;2023-07-31T13:13:42;6.53;;;1.80;;
16870;SDS011;8552;48.120;-1.456;2023-07-31T13:16:08;4.00;;;1.85;;
16870;SDS011;8552;48.120;-1.456;2023-07-31T13:18:34;2.88;;;1.83;;
16870;SDS011;8552;48.120;-1.456;2023-07-31T13:20:59;4.93;;;2.20;;
16870;SDS011;8552;48.120;-1.456;2023-07-31T13:23:25;2.65;;;1.77;;
16870;SDS011;8552;48.120;-1.456;2023-07-31T13:25:51;4.32;;;1.92;;
16870;SDS011;8552;48.120;-1.456;2023-07-31T13:28:16;4.03;;;2.10;;
16870;SDS011;8552;48.120;-1.456;2023-07-31T13:30:42;3.58;;;1.85;;
16870;SDS011;8552;48.120;-1.456;2023-07-31T13:33:07;2.40;;;1.92;;
16870;SDS011;8552;48.120;-1.456;2023-07-31T13:35:33;3.17;;;1.90;;
16870;SDS011;8552;48.120;-1.456;2023-07-31T13:37:59;3.75;;;1.83;;
16870;SDS011;8552;48.120;-1.456;2023-07-31T13:40:24;2.20;;;1.60;;
16870;SDS011;8552;48.120;-1.456;2023-07-31T13:42:50;1.90;;;1.52;;
16870;SDS011;8552;48.120;-1.456;2023-07-31T13:45:16;2.85;;;1.95;;
16870;SDS011;8552;48.120;-1.456;2023-07-31T13:47:42;2.40;;;1.80;;
16870;SDS011;8552;48.120;-1.456;2023-07-31T13:50:07;2.00;;;1.45;;
16870;SDS011;8552;48.120;-1.456;2023-07-31T13:52:33;3.30;;;1.85;;
16870;SDS011;8552;48.120;-1.456;2023-07-31T13:54:59;2.50;;;1.85;;
16870;SDS011;8552;48.120;-1.456;2023-07-31T13:57:24;2.35;;;1.60;;
16870;SDS011;8552;48.120;-1.456;2023-07-31T13:59:50;2.75;;;2.13;;
16870;SDS011;8552;48.120;-1.456;2023-07-31T14:02:16;3.78;;;1.70;;
16870;SDS011;8552;48.120;-1.456;2023-07-31T14:04:41;4.18;;;1.50;;
16870;SDS011;8552;48.120;-1.456;2023-07-31T14:07:07;3.05;;;2.00;;
16870;SDS011;8552;48.120;-1.456;2023-07-31T14:09:33;2.40;;;1.90;;
16870;SDS011;8552;48.120;-1.456;2023-07-31T14:11:58;2.00;;;1.70;;
16870;SDS011;8552;48.120;-1.456;2023-07-31T14:14:24;7.75;;;2.63;;
16870;SDS011;8552;48.120;-1.456;2023-07-31T14:16:50;3.40;;;2.42;;
16870;SDS011;8552;48.120;-1.456;2023-07-31T14:19:15;5.68;;;4.10;;
16870;SDS011;8552;48.120;-1.456;2023-07-31T14:21:41;8.05;;;4.30;;
16870;SDS011;8552;48.120;-1.456;2023-07-31T14:24:07;6.32;;;3.92;;
16870;SDS011;8552;48.120;-1.456;2023-07-31T14:26:32;3.30;;;2.67;;
16870;SDS011;8552;48.120;-1.456;2023-07-31T14:28:58;3.08;;;2.78;;
16870;SDS011;8552;48.120;-1.456;2023-07-31T14:31:24;8.38;;;7.40;;
16870;SDS011;8552;48.120;-1.456;2023-07-31T14:33:49;5.15;;;3.33;;
16870;SDS011;8552;48.120;-1.456;2023-07-31T14:36:15;3.90;;;2.40;;
16870;SDS011;8552;48.120;-1.456;2023-07-31T14:38:41;3.33;;;2.28;;
16870;SDS011;8552;48.120;-1.456;2023-07-31T14:41:06;5.03;;;2.35;;
16870;SDS011;8552;48.120;-1.456;2023-07-31T14:43:32;3.42;;;2.20;;
16870;SDS011;8552;48.120;-1.456;2023-07-31T14:45:58;2.75;;;2.20;;
16870;SDS011;8552;48.120;-1.456;2023-07-31T14:48:25;3.90;;;2.22;;
16870;SDS011;8552;48.120;-1.456;2023-07-31T14:50:52;3.80;;;2.28;;